MP3/FLAC

‹ prev 2017-12-14 next › 801 release(s) · 59,25 GB · filter: day
Release Group Size Files Date ↓
Iron_Walrus-A_Beast_Within-WEB-2017-ENTiTLED ENTiTLED 79,41 MB 12 2017-12-14
Midnight-Sweet_Death_and_Ecstasy-WEB-2017-ENTiTLED ENTiTLED 165,47 MB 23 2017-12-14
Iron_Walrus-Insidious_Black_Sea-WEB-2014-ENTiTLED ENTiTLED 67,18 MB 11 2017-12-14
VA_-_Black_Hole_Recordings_Best_Of_2017-WEB-2017-MMS MMS 526,56 MB 53 2017-12-14
Dulaman-Voice_of_the_Celts-WEB-2017-ENTiTLED ENTiTLED 128,93 MB 19 2017-12-14
Hawkwind-Hawkwind_Live_at_the_Roundhouse-WEB-2017-ENTiTLED ENTiTLED 283,29 MB 24 2017-12-14
Nicolas_Petracca-Imagination_Fields-WEB-2017-AFO AFO 96,01 MB 8 2017-12-14
Naz_K-Sunstream-WEB-2017-AFO AFO 31,94 MB 5 2017-12-14
The_Blizzard_-_Decade_(Incl._Edit)-(FSOEP002)-WEB-2017-MMS MMS 25,59 MB 6 2017-12-14
Amber_Long-Draw_the_Line-WEB-2017-AFO AFO 28,20 MB 5 2017-12-14
Young_Kira-Six_Feet_Thunder-WEB-2017-ENRAGED ENRAGED 68,51 MB 11 2017-12-14
VA-Best_of_Cr2_2017-(ITC2DI243)-WEB-2017-ENSLAVE ENSLAVE 1,44 GB 106 2017-12-14
Kapote-Temptation-(TOYT074)-WEB-2017-ENSLAVE ENSLAVE 50,84 MB 7 2017-12-14
Kid_Only-Luv_Chemistry-(HCR036)-WEB-2017-ENSLAVE ENSLAVE 55,83 MB 7 2017-12-14
Paulor-Paulor-EP-(YAYHF05D)-WEB-2017-ENSLAVE ENSLAVE 79,30 MB 9 2017-12-14
Seb_Wildblood-Familiar_Boundaries-(LPH054)-WEB-2017-ENSLAVE ENSLAVE 56,92 MB 7 2017-12-14
Raj_Pannu-FSOP-(MMM09)-WEB-2017-ENSLAVE ENSLAVE 55,35 MB 7 2017-12-14
Ricardo_Tobar-Liturgia-(ESP057)-WEB-2017-ENSLAVE ENSLAVE 73,12 MB 8 2017-12-14
Skream-Chronicles-EP-(OFUNSOUNDMIND043)-WEB-2017-ENSLAVE ENSLAVE 67,41 MB 8 2017-12-14
The_Vendetta_Suite-Solar_Lodge_23-(HYR7175)-WEB-2017-ENSLAVE ENSLAVE 40,56 MB 9 2017-12-14
Kloon_-_Black_Boy__Calcify-(ACTDRK035)-WEB-2017-MMS MMS 23,17 MB 5 2017-12-14
VA_-_Outburst_Presents_Prism_Volume_2-WEB-2017-MMS MMS 959,30 MB 49 2017-12-14
VA-Inspectrum_Recordings_Best_of_2017-WEB-2017-AFO AFO 423,38 MB 19 2017-12-14
G-Eazy-The_Beautiful_and_Damned-WEB-2017-ENRAGED ENRAGED 170,77 MB 24 2017-12-14
Paul_Pollux_-_Apotheosis_Of_The_Red_Giant-(MARAES012)-WEB-2017-MMS MMS 44,23 MB 6 2017-12-14
John_Williams-Star_Wars_The_Last_Jedi_(Original_Motion_Picture_Soundtrack)-WEB-2017-ENTiTLED ENTiTLED 177,86 MB 24 2017-12-14
Calvin_Ocommor-I_Miss_You-WEB-2017-AFO AFO 21,60 MB 4 2017-12-14
Ian_Source_-_Deep_In_Thought-(SCR137)-WEB-2017-MMS MMS 31,39 MB 5 2017-12-14
Yiyan_Jiang-Our_Tiny_World-WEB-CN-2017-TosK TosK 92,50 MB 13 2017-12-14
Alex_Believe_and_ROMM_and_Julia_Violin-Time_Planet-WEB-2017-AFO AFO 14,35 MB 4 2017-12-14
Black_XS_-_Black_Fiction-(ARD093)-WEB-2017-MMS MMS 17,90 MB 5 2017-12-14
Giorno_-_Moskva-(HF193)-WEB-2017-MMS MMS 16,28 MB 6 2017-12-14
Surilla_-_Lost-(HF194)-WEB-2017-MMS MMS 19,35 MB 6 2017-12-14
Topmodelz_-_Take_Me_Home_Tonight_(Reloaded)-WEB-2017-MMS MMS 64,15 MB 11 2017-12-14
Sunvibez_and_Max_R._-_Music_In_Your_Heart-(ZD505)-WEB-2017-MMS MMS 6,79 MB 5 2017-12-14
Nora_En_Pure_-_Trailblazer_(Incl._Edit)-(ETR400)-WEB-2017-MMS MMS 21,05 MB 6 2017-12-14
Carter_and_Funk_ft._Crizzn_-_Wonderful_Life-WEB-2017-MMS MMS 64,53 MB 12 2017-12-14
Wolf_Krew_and_Elshay_-_5Am-(ETC049)-WEB-2017-MMS MMS 29,95 MB 7 2017-12-14
Blondee_and_Marcus_Brodowski_-_Bakerman-(ETC064)-WEB-2017-MMS MMS 28,65 MB 6 2017-12-14
De_Hofnar_-_Kings_and_Queens-(ARDI3933)-WEB-2017-MMS MMS 41,72 MB 10 2017-12-14
2room_-_L.O.V.E.-(BIGSMILE055)-WEB-2017-MMS MMS 17,07 MB 5 2017-12-14
Marc_Reason_and_Jay_Frog_-_Sunchyme_2K18-(TB535)-WEB-2017-MMS MMS 52,72 MB 10 2017-12-14
D-Ceptor_and_Tyfon_-_Cocaine-(DQX012)-WEB-2017-MMS MMS 10,17 MB 4 2017-12-14
Twelve_Sessions-Changing_Dosage-WEB-2017-AFO AFO 33,97 MB 5 2017-12-14
Gabriel_Le_Mar-Last_Track_Standing-(GLM1117)-WEB-2017-ENSLAVE ENSLAVE 322,23 MB 21 2017-12-14
Rene_Ablaze_and_Dreamy_ft._Kevin_Faraci_-_Stay-(ALWAYSA225)-WEB-2017-MMS MMS 27,22 MB 6 2017-12-14
Abel-Rough_or_Smooth-(ARC009AD)-WEB-2017-ENSLAVE ENSLAVE 177,00 MB 16 2017-12-14
VA-Best_of_Stil_vor_Talent_2017-(SVT209)-WEB-2017-ENSLAVE ENSLAVE 302,78 MB 21 2017-12-14
VA-Press_Play_Vol_4-(RNM184)-WEB-2017-ENSLAVE ENSLAVE 330,45 MB 21 2017-12-14
Andrea_Ribeca_-_Amoroso_Remixed-(BLS299)-WEB-2017-MMS MMS 51,37 MB 6 2017-12-14